Time;durP1;ratioP1;P1;durP2;ratioP2;P2;SDS_P1;SDS_P2;PMS_P1;PMS_P2;Temp;Humidity;BMP_temperature;BMP_pressure;BME280_temperature;BME280_humidity;BME280_pressure;Samples;Min_cycle;Max_cycle;Signal;HPM_P1;HPM_P2
2022/01/14 00:01:53;;;;;;;16.98;8.68;;;;;;;19.19;24.76;99197.44;4972408;28;20451;-79
2022/01/14 00:04:20;;;;;;;15.57;8.35;;;;;;;19.21;24.91;99197.06;4970935;28;20035;-79
2022/01/14 00:06:47;;;;;;;15.25;6.88;;;;;;;19.71;24.35;99195.84;4973090;28;20385;-79
2022/01/14 00:09:14;;;;;;;19.33;7.70;;;;;;;20.33;23.31;99194.22;4973848;28;20035;-78
2022/01/14 00:11:52;;;;;;;15.98;9.20;;;;;;;19.83;23.71;99201.19;4970448;28;20517;-78
2022/01/14 00:14:23;;;;;;;15.65;7.68;;;;;;;19.61;23.98;99210.41;4972088;28;20026;-79
2022/01/14 00:16:49;;;;;;;15.35;7.22;;;;;;;19.98;23.73;99206.56;4971579;28;20109;-78
2022/01/14 00:19:17;;;;;;;15.85;9.35;;;;;;;19.12;24.74;99204.88;4970095;28;20402;-79
2022/01/14 00:21:44;;;;;;;15.93;8.05;;;;;;;18.78;25.20;99214.25;4971626;28;20045;-79
2022/01/14 00:24:23;;;;;;;15.43;8.70;;;;;;;19.24;24.70;99199.91;4971510;28;20114;-79
2022/01/14 00:32:29;;;;;;;20.67;8.57;;;;;;;18.00;26.52;99196.06;4970538;28;20525;-79
2022/01/14 00:34:55;;;;;;;15.13;7.32;;;;;;;17.97;26.53;99190.44;4972856;28;20031;-79
2022/01/14 00:37:21;;;;;;;13.30;7.47;;;;;;;17.71;26.70;99203.00;4971818;28;20039;-79
2022/01/14 00:39:47;;;;;;;15.15;7.18;;;;;;;18.67;25.54;99191.03;4971057;28;20118;-79
2022/01/14 00:42:14;;;;;;;13.05;7.30;;;;;;;18.61;25.39;99182.16;4971921;28;20038;-79
2022/01/14 00:44:41;;;;;;;14.88;7.18;;;;;;;17.81;26.72;99196.06;4973994;28;20062;-79
2022/01/14 00:47:07;;;;;;;13.23;6.90;;;;;;;19.08;25.21;99204.84;4985416;28;20398;-79
2022/01/14 00:49:33;;;;;;;12.18;6.00;;;;;;;19.20;24.63;99190.72;4971086;28;20031;-78
2022/01/14 00:51:59;;;;;;;11.90;6.80;;;;;;;19.58;23.85;99184.13;4970550;28;20050;-79
2022/01/14 00:54:26;;;;;;;14.25;7.45;;;;;;;20.83;22.36;99192.75;4972598;28;20482;-79
2022/01/14 00:57:14;;;;;;;17.65;8.10;;;;;;;19.01;24.42;99201.94;4971017;28;20475;-79
2022/01/14 00:59:41;;;;;;;17.40;7.95;;;;;;;18.68;25.09;99218.47;4972819;28;20034;-79
2022/01/14 01:02:09;;;;;;;12.60;6.97;;;;;;;19.64;23.96;99223.59;4970913;28;20027;-79
2022/01/14 01:04:39;;;;;;;14.75;8.07;;;;;;;17.82;26.32;99223.50;4972694;28;20035;-79
2022/01/14 01:07:07;;;;;;;15.40;8.40;;;;;;;17.69;26.54;99201.78;4973771;28;20034;-79
2022/01/14 01:09:34;;;;;;;15.63;8.65;;;;;;;17.08;27.33;99227.28;4971179;28;20031;-79
2022/01/14 01:14:42;;;;;;;15.40;8.40;;;;;;;18.97;24.72;99233.69;4966534;28;20043;-79
2022/01/14 01:17:08;;;;;;;16.40;8.73;;;;;;;17.97;26.04;99223.78;4968033;28;20482;-79
2022/01/14 01:19:35;;;;;;;18.67;9.43;;;;;;;17.82;26.17;99206.00;4970116;28;20045;-79
2022/01/14 01:22:01;;;;;;;13.95;8.23;;;;;;;17.78;26.63;99191.25;4970706;28;20153;-79
2022/01/14 01:24:27;;;;;;;14.70;7.03;;;;;;;17.02;27.69;99191.84;4969361;28;20446;-79
2022/01/14 01:26:54;;;;;;;15.25;8.77;;;;;;;17.73;26.71;99174.88;4972656;28;20023;-79
2022/01/14 01:31:50;;;;;;;16.70;8.85;;;;;;;17.77;26.59;99165.44;4975877;28;20042;-79
2022/01/14 01:34:24;;;;;;;20.85;8.63;;;;;;;18.49;25.47;99155.34;4975561;28;20039;-78
2022/01/14 01:36:53;;;;;;;16.98;8.73;;;;;;;17.93;26.03;99171.72;4978648;28;20031;-78
2022/01/14 01:39:23;;;;;;;19.23;9.30;;;;;;;17.83;26.37;99169.53;4974527;28;20031;-78
2022/01/14 01:41:52;;;;;;;17.63;8.48;;;;;;;17.19;27.51;99185.94;4975721;28;20030;-78
2022/01/14 01:44:20;;;;;;;21.48;10.05;;;;;;;17.26;27.32;99173.03;4974503;28;20085;-79
2022/01/14 01:46:47;;;;;;;19.52;8.90;;;;;;;16.68;28.12;99196.19;4974957;28;20035;-79
2022/01/14 01:49:16;;;;;;;20.67;9.85;;;;;;;17.09;27.91;99194.81;4971654;28;20026;-79
2022/01/14 01:51:44;;;;;;;16.42;8.13;;;;;;;17.85;26.65;99171.97;4977680;28;20085;-78
2022/01/14 01:54:11;;;;;;;15.73;8.73;;;;;;;17.89;26.58;99192.28;4972417;28;20031;-79
2022/01/14 01:56:37;;;;;;;15.82;8.65;;;;;;;17.74;26.40;99202.28;4972944;28;20038;-79
2022/01/14 01:59:04;;;;;;;17.15;9.45;;;;;;;18.52;25.46;99193.53;4976301;28;20066;-79
2022/01/14 02:01:30;;;;;;;20.85;11.55;;;;;;;18.11;25.91;99179.63;4973439;28;20101;-78
2022/01/14 02:03:57;;;;;;;17.35;9.10;;;;;;;17.50;27.06;99185.06;4975764;28;20114;-78
2022/01/14 02:06:24;;;;;;;16.17;9.63;;;;;;;16.89;27.82;99182.84;4993812;28;20038;-79
2022/01/14 02:08:51;;;;;;;19.70;9.60;;;;;;;16.49;28.47;99191.31;4996001;28;20403;-78
2022/01/14 02:11:17;;;;;;;19.80;10.55;;;;;;;15.48;30.43;99194.75;4975205;28;20035;-79
2022/01/14 02:13:44;;;;;;;21.15;10.68;;;;;;;15.50;30.36;99167.50;4971089;28;20031;-79
2022/01/14 02:16:18;;;;;;;18.48;9.80;;;;;;;15.89;29.75;99184.09;4975175;28;20031;-78
2022/01/14 02:24:56;;;;;;;23.70;10.70;;;;;;;15.89;29.47;99148.09;4975323;28;20050;-78
2022/01/14 02:26:54;;;;;;;17.92;8.85;;;;;;;16.51;29.00;99154.94;4976085;28;20105;-79
2022/01/14 02:29:23;;;;;;;22.73;11.63;;;;;;;16.51;28.42;99141.91;4973512;28;20035;-79
2022/01/14 02:31:49;;;;;;;19.00;9.45;;;;;;;17.31;27.31;99144.19;4974372;28;20042;-79
2022/01/14 02:34:16;;;;;;;18.35;9.73;;;;;;;16.24;28.98;99148.25;4972560;28;20050;-78
2022/01/14 02:36:44;;;;;;;19.55;9.45;;;;;;;17.72;26.85;99143.50;4971856;28;20482;-78
2022/01/14 02:39:12;;;;;;;18.13;10.18;;;;;;;17.49;26.88;99127.91;4973111;28;20086;-78
2022/01/14 02:41:41;;;;;;;19.83;9.77;;;;;;;17.84;26.54;99145.34;4974316;28;20035;-79
2022/01/14 02:44:11;;;;;;;18.23;9.60;;;;;;;19.22;24.67;99120.72;4972568;28;20126;-78
2022/01/14 02:46:49;;;;;;;14.95;8.43;;;;;;;17.33;27.03;99127.16;4971405;28;20494;-79
2022/01/14 02:49:15;;;;;;;20.33;9.55;;;;;;;17.58;26.68;99134.06;4974014;28;20063;-79
2022/01/14 02:51:41;;;;;;;19.45;10.93;;;;;;;17.83;26.07;99115.94;4972875;28;20546;-79
2022/01/14 02:54:16;;;;;;;16.95;9.20;;;;;;;17.73;26.61;99114.59;4973374;28;20026;-78
2022/01/14 02:56:46;;;;;;;19.52;11.05;;;;;;;16.87;27.55;99112.25;4973583;28;20034;-78
2022/01/14 02:59:15;;;;;;;15.30;9.27;;;;;;;16.56;28.20;99107.56;4974315;28;20042;-78
2022/01/14 03:01:42;;;;;;;26.65;11.88;;;;;;;17.09;27.49;99117.94;4975622;28;20070;-78
2022/01/14 03:04:09;;;;;;;18.38;9.93;;;;;;;16.07;28.65;99120.09;4973765;28;20042;-78
2022/01/14 03:06:35;;;;;;;21.85;10.60;;;;;;;15.70;29.49;99106.44;4973504;28;20410;-78
2022/01/14 03:09:02;;;;;;;24.27;12.27;;;;;;;15.38;30.16;99114.97;4973775;28;20487;-78
2022/01/14 03:11:48;;;;;;;21.25;11.13;;;;;;;15.30;30.52;99122.25;4972822;28;20058;-78
2022/01/14 03:14:22;;;;;;;15.85;8.48;;;;;;;15.84;29.38;99108.81;4973730;28;20038;-78
2022/01/14 03:16:53;;;;;;;26.70;11.45;;;;;;;16.55;28.29;99103.16;4974223;28;20117;-78
2022/01/14 03:19:23;;;;;;;17.98;9.88;;;;;;;16.73;27.93;99103.59;4954833;28;20088;-78
2022/01/14 03:21:52;;;;;;;18.33;9.95;;;;;;;16.35;28.70;99107.00;4954532;29;20035;-78
2022/01/14 03:25:47;;;;;;;19.73;10.02;;;;;;;16.06;29.16;99108.19;4954895;29;20082;-78
2022/01/14 03:27:10;;;;;;;23.80;10.55;;;;;;;16.97;27.71;99098.63;4954228;28;20102;-78
2022/01/14 03:29:37;;;;;;;22.95;11.73;;;;;;;17.85;26.57;99094.19;4957222;28;20035;-79
2022/01/14 03:32:04;;;;;;;23.02;12.43;;;;;;;17.53;26.71;99095.50;4961048;28;20040;-78
2022/01/14 03:34:32;;;;;;;20.08;9.60;;;;;;;16.70;27.96;99087.69;4956499;28;20062;-78
2022/01/14 03:36:58;;;;;;;20.40;10.70;;;;;;;16.96;27.50;99090.66;4952012;28;20384;-78
2022/01/14 03:39:24;;;;;;;20.42;11.10;;;;;;;17.52;26.58;99093.91;4949815;28;20035;-78
2022/01/14 03:41:51;;;;;;;24.15;11.93;;;;;;;17.99;26.00;99104.75;4956498;28;20080;-78
2022/01/14 03:44:18;;;;;;;22.30;11.15;;;;;;;17.88;26.14;99101.75;4954895;28;20031;-78
2022/01/14 03:46:44;;;;;;;22.35;11.63;;;;;;;19.33;23.89;99088.25;4958733;28;20066;-78
2022/01/14 03:49:11;;;;;;;19.45;11.13;;;;;;;18.91;24.50;99091.25;4957604;28;20562;-78
2022/01/14 03:51:37;;;;;;;21.60;10.40;;;;;;;18.29;25.46;99095.38;4954072;29;20066;-78
2022/01/14 03:54:03;;;;;;;26.88;12.93;;;;;;;16.27;28.09;99081.06;4949599;29;20357;-78
2022/01/14 03:56:29;;;;;;;19.55;11.50;;;;;;;17.04;27.13;99082.13;4954822;29;20058;-78
2022/01/14 03:58:55;;;;;;;18.95;11.35;;;;;;;17.88;26.16;99085.09;4957783;28;20110;-78
2022/01/14 04:01:22;;;;;;;22.42;11.60;;;;;;;17.41;26.46;99059.53;4959528;28;20042;-78
2022/01/14 04:03:49;;;;;;;21.25;10.60;;;;;;;17.84;25.90;99085.03;4954752;29;20035;-78
2022/01/14 04:06:17;;;;;;;18.70;10.82;;;;;;;18.15;25.46;99080.44;4957484;28;20472;-78
2022/01/14 04:08:43;;;;;;;19.63;10.50;;;;;;;18.35;25.29;99085.56;4953816;28;20359;-78
2022/01/14 04:11:11;;;;;;;25.48;12.75;;;;;;;18.39;25.15;99080.84;4951972;28;20553;-78
2022/01/14 04:16:08;;;;;;;24.10;12.57;;;;;;;18.37;24.97;99072.09;4955281;28;20035;-78
2022/01/14 04:18:35;;;;;;;17.70;10.07;;;;;;;17.65;26.10;99076.72;4953320;28;20043;-78
2022/01/14 04:21:01;;;;;;;20.00;11.75;;;;;;;17.67;26.07;99074.38;4954010;29;20029;-78
2022/01/14 04:23:27;;;;;;;19.17;10.82;;;;;;;17.67;26.09;99068.00;4952774;28;20479;-78
2022/01/14 04:25:54;;;;;;;22.33;11.48;;;;;;;19.13;24.39;99061.75;4953707;29;20039;-78
2022/01/14 04:28:22;;;;;;;16.45;9.70;;;;;;;17.94;25.70;99067.78;4951856;28;20074;-78
2022/01/14 04:30:54;;;;;;;21.15;9.77;;;;;;;18.30;25.23;99049.72;4953825;29;20067;-78
2022/01/14 04:33:21;;;;;;;17.33;9.32;;;;;;;18.55;24.88;99048.16;4958347;28;20027;-78
2022/01/14 04:35:47;;;;;;;19.77;10.50;;;;;;;17.52;26.24;99038.38;4958487;28;20440;-78
2022/01/14 04:38:14;;;;;;;19.45;10.48;;;;;;;17.35;26.19;99041.56;4952404;28;20035;-78
2022/01/14 04:40:40;;;;;;;21.27;10.07;;;;;;;17.00;26.96;99049.94;4957848;28;20023;-78
2022/01/14 04:43:07;;;;;;;20.80;11.93;;;;;;;15.31;29.66;99035.31;4950639;28;20032;-78
2022/01/14 04:48:04;;;;;;;20.17;11.10;;;;;;;15.94;28.72;99011.34;4957202;28;20543;-78
2022/01/14 04:50:31;;;;;;;24.23;12.20;;;;;;;15.86;28.83;99043.59;4955428;28;20038;-78
2022/01/14 04:52:57;;;;;;;19.63;11.27;;;;;;;15.95;28.61;99048.16;4954020;28;20044;-78
2022/01/14 04:55:26;;;;;;;19.80;12.00;;;;;;;16.52;28.02;99051.22;4953745;28;20074;-78
2022/01/14 04:57:53;;;;;;;20.27;10.45;;;;;;;17.38;26.78;99041.66;4954181;29;20067;-78
2022/01/14 05:00:26;;;;;;;21.77;12.98;;;;;;;16.69;27.35;99025.06;4953511;29;20039;-78
2022/01/14 05:02:54;;;;;;;25.23;12.38;;;;;;;15.98;28.46;99028.06;4948056;28;20046;-78
2022/01/14 05:05:27;;;;;;;26.95;14.20;;;;;;;16.84;27.59;99024.22;4950862;28;20383;-78
2022/01/14 05:07:53;;;;;;;26.35;12.77;;;;;;;16.24;28.07;99034.66;4957008;28;20042;-78
2022/01/14 05:12:56;;;;;;;30.73;16.17;;;;;;;16.45;27.65;99020.53;4962575;28;20410;-78
2022/01/14 05:15:22;;;;;;;20.05;11.57;;;;;;;17.54;26.54;99016.59;4957348;28;20038;-78
2022/01/14 05:17:49;;;;;;;23.40;12.90;;;;;;;17.15;26.72;99019.34;4957177;28;20046;-78
2022/01/14 05:20:18;;;;;;;20.88;12.57;;;;;;;17.10;26.84;99027.19;4957339;28;20046;-78
2022/01/14 05:22:44;;;;;;;20.25;11.55;;;;;;;17.48;26.07;99029.94;4955648;28;20057;-78
2022/01/14 05:25:13;;;;;;;26.35;14.40;;;;;;;17.74;26.17;99034.81;4953815;28;20054;-78
2022/01/14 05:27:41;;;;;;;22.98;12.45;;;;;;;18.25;25.01;99025.00;4957305;29;20116;-78
2022/01/14 05:30:10;;;;;;;24.58;13.68;;;;;;;18.74;24.42;98996.41;4955803;28;20483;-78
2022/01/14 05:32:36;;;;;;;24.65;14.32;;;;;;;16.59;27.38;99005.03;4957314;29;20031;-78
2022/01/14 05:35:03;;;;;;;25.83;13.75;;;;;;;14.62;30.65;99015.47;4951016;28;20472;-78
2022/01/14 05:37:29;;;;;;;24.73;14.40;;;;;;;16.21;28.28;99007.69;4946873;28;20031;-78
2022/01/14 05:39:57;;;;;;;26.30;14.95;;;;;;;15.35;29.44;98977.31;4955214;29;20067;-78
2022/01/14 05:42:23;;;;;;;24.95;14.02;;;;;;;14.42;30.91;98997.91;4959994;28;20545;-78
2022/01/14 05:44:51;;;;;;;27.55;14.07;;;;;;;16.21;28.54;99004.09;4948870;28;20039;-78
2022/01/14 05:47:17;;;;;;;26.27;13.57;;;;;;;17.06;27.00;98993.00;4954220;28;20444;-78
2022/01/14 05:49:45;;;;;;;23.30;12.45;;;;;;;16.49;27.85;98982.63;4949984;29;20030;-78
2022/01/14 05:52:11;;;;;;;24.50;13.98;;;;;;;16.24;28.17;98972.94;4936425;29;20035;-78
2022/01/14 05:54:37;;;;;;;28.10;15.48;;;;;;;15.30;29.52;98970.09;4948003;29;20031;-78
2022/01/14 05:57:03;;;;;;;28.00;14.45;;;;;;;15.28;29.73;98966.06;4957323;28;20031;-78
2022/01/14 05:59:29;;;;;;;26.38;14.40;;;;;;;15.33;29.75;98980.47;4951608;28;20091;-78
2022/01/14 06:01:55;;;;;;;25.35;13.45;;;;;;;15.40;29.50;98977.88;4953032;28;20036;-78
2022/01/14 06:04:21;;;;;;;28.02;14.52;;;;;;;14.80;30.57;98978.13;4953596;28;20039;-78
2022/01/14 06:06:47;;;;;;;26.30;15.00;;;;;;;15.63;29.25;98962.31;4951895;29;20391;-78
2022/01/14 06:09:13;;;;;;;24.38;12.75;;;;;;;15.99;28.80;98968.72;4952413;28;20045;-78
2022/01/14 06:11:39;;;;;;;28.23;14.35;;;;;;;16.32;28.08;98958.06;4950645;28;20035;-79
2022/01/14 06:14:05;;;;;;;21.83;12.65;;;;;;;15.23;29.76;98969.91;4954238;28;20050;-78
2022/01/14 06:16:31;;;;;;;25.33;13.23;;;;;;;16.96;27.33;98963.88;4951926;29;20070;-78
2022/01/14 06:18:58;;;;;;;22.67;12.45;;;;;;;17.01;27.03;98958.00;4970300;28;20050;-78
2022/01/14 06:21:24;;;;;;;26.88;14.05;;;;;;;16.72;27.05;98961.38;4969659;28;20092;-78
2022/01/14 06:23:50;;;;;;;20.80;11.07;;;;;;;16.90;27.29;98962.56;4969909;28;20030;-78
2022/01/14 06:26:16;;;;;;;21.75;10.60;;;;;;;17.34;26.70;98954.69;4976523;28;20034;-78
2022/01/14 06:28:43;;;;;;;23.70;10.70;;;;;;;17.31;26.68;98951.88;4974727;28;20047;-78
2022/01/14 06:31:09;;;;;;;22.20;11.43;;;;;;;16.53;27.34;98951.06;4970418;28;20510;-78
2022/01/14 06:33:35;;;;;;;23.08;11.80;;;;;;;16.23;28.04;98951.91;4970855;28;20049;-78
2022/01/14 06:36:02;;;;;;;19.55;10.40;;;;;;;15.67;28.93;98956.88;4976449;28;20486;-78
2022/01/14 06:38:28;;;;;;;20.08;12.27;;;;;;;16.80;27.35;98957.59;4974170;28;20042;-78
2022/01/14 06:40:54;;;;;;;24.20;13.63;;;;;;;15.87;28.59;98944.69;4972411;28;20091;-80
2022/01/14 06:43:20;;;;;;;24.58;12.25;;;;;;;16.34;28.24;98955.72;4973431;28;20047;-79
2022/01/14 06:45:46;;;;;;;19.27;10.95;;;;;;;16.27;28.15;98953.59;4980572;28;20069;-79
2022/01/14 06:48:12;;;;;;;23.38;11.48;;;;;;;15.99;28.30;98966.78;4991267;28;20034;-79
2022/01/14 06:50:38;;;;;;;18.15;10.45;;;;;;;16.63;27.52;98958.00;4974808;28;20035;-79
2022/01/14 06:53:04;;;;;;;24.50;12.18;;;;;;;16.55;27.54;98962.59;4971969;28;20066;-79
2022/01/14 06:55:30;;;;;;;18.10;10.30;;;;;;;16.69;27.51;98981.50;4974794;28;20035;-79
2022/01/14 06:57:56;;;;;;;26.85;12.13;;;;;;;15.95;28.57;98976.16;4974114;28;20027;-79
2022/01/14 07:00:23;;;;;;;21.77;12.00;;;;;;;16.18;28.08;98977.13;4974736;28;20046;-79
2022/01/14 07:02:49;;;;;;;23.10;12.50;;;;;;;15.54;29.02;98963.66;4975729;28;20030;-79
2022/01/14 07:05:15;;;;;;;26.00;12.82;;;;;;;15.63;28.94;98956.78;4975161;28;20038;-79
2022/01/14 07:07:42;;;;;;;22.90;12.07;;;;;;;15.14;29.94;98960.94;4975649;28;20035;-79
2022/01/14 07:10:09;;;;;;;24.52;11.60;;;;;;;15.17;29.92;98966.56;4975675;28;20143;-79
2022/01/14 07:12:37;;;;;;;20.67;11.48;;;;;;;14.94;30.27;98961.94;4976113;28;20026;-79
2022/01/14 07:15:06;;;;;;;25.33;12.50;;;;;;;14.77;30.77;98957.50;4975122;28;20038;-79
2022/01/14 07:17:32;;;;;;;26.33;13.00;;;;;;;14.81;30.69;98950.13;4975275;28;20533;-79
2022/01/14 07:20:05;;;;;;;28.42;11.88;;;;;;;15.53;29.34;98943.47;4975622;28;20041;-79
2022/01/14 07:22:31;;;;;;;19.90;10.80;;;;;;;15.99;28.78;98952.09;4975397;28;20030;-79
2022/01/14 07:24:58;;;;;;;25.52;12.82;;;;;;;16.13;28.45;98958.00;4975219;28;20047;-79
2022/01/14 07:27:25;;;;;;;23.90;13.45;;;;;;;15.77;28.98;98961.88;4981028;28;20502;-79
2022/01/14 07:29:51;;;;;;;21.33;12.60;;;;;;;15.21;29.82;98961.16;4994124;28;20030;-79
2022/01/14 07:32:17;;;;;;;21.20;11.80;;;;;;;14.10;31.38;98974.75;4994910;28;20097;-79
2022/01/14 07:34:45;;;;;;;24.27;12.15;;;;;;;15.66;29.30;98974.66;4985893;28;20027;-79
2022/01/14 07:37:11;;;;;;;24.85;14.85;;;;;;;15.11;30.19;98973.53;4975568;28;20054;-79
2022/01/14 07:39:37;;;;;;;27.80;14.48;;;;;;;15.26;29.68;98971.16;4975135;28;20101;-79
2022/01/14 07:42:04;;;;;;;24.30;14.57;;;;;;;14.84;30.80;98974.28;4976111;28;20038;-78
2022/01/14 07:44:30;;;;;;;26.85;12.93;;;;;;;15.42;29.67;98981.09;4988489;28;20031;-79
2022/01/14 07:46:56;;;;;;;27.35;14.02;;;;;;;16.16;28.70;98993.28;4990733;28;20121;-79
2022/01/14 07:49:22;;;;;;;26.15;12.90;;;;;;;15.09;30.12;98989.66;4990547;28;20046;-79
2022/01/14 07:51:48;;;;;;;26.33;12.90;;;;;;;15.11;30.29;99006.72;4994373;28;20493;-79
2022/01/14 07:54:14;;;;;;;26.08;13.55;;;;;;;15.82;29.51;99006.69;4981275;28;20023;-79
2022/01/14 07:56:45;;;;;;;28.98;13.55;;;;;;;15.14;30.31;99006.00;4974601;28;20536;-79
2022/01/14 07:59:12;;;;;;;;;;;;;;;14.89;30.59;99018.28;4974110;28;20034;-79
2022/01/14 08:01:39;;;;;;;24.65;13.10;;;;;;;14.99;30.58;99014.22;4974677;28;19918;-79
2022/01/14 08:04:05;;;;;;;27.15;15.10;;;;;;;15.09;30.23;98986.09;4985438;28;20483;-79
2022/01/14 08:06:34;;;;;;;28.40;15.18;;;;;;;14.93;30.38;98982.47;4975258;28;20186;-79
2022/01/14 08:09:00;;;;;;;28.73;16.23;;;;;;;14.98;30.38;98969.19;4975041;28;20069;-79
2022/01/14 08:11:27;;;;;;;31.83;16.40;;;;;;;15.49;29.76;98972.22;4977002;28;20106;-79
2022/01/14 08:13:53;;;;;;;27.98;15.05;;;;;;;15.40;29.67;98974.31;4974699;28;20038;-79
2022/01/14 08:16:19;;;;;;;26.75;14.80;;;;;;;15.61;29.40;98970.16;4978835;28;20022;-79
2022/01/14 08:18:45;;;;;;;29.75;14.77;;;;;;;16.15;28.89;98966.78;4982383;28;20414;-79
2022/01/14 08:21:11;;;;;;;27.63;13.38;;;;;;;17.08;27.36;98960.16;4974900;28;20035;-79
2022/01/14 08:23:39;;;;;;;27.55;13.10;;;;;;;17.42;26.58;98966.75;4974585;28;20506;-79
2022/01/14 08:26:05;;;;;;;25.77;13.13;;;;;;;17.04;27.30;98967.59;4974893;28;20031;-79
2022/01/14 08:28:31;;;;;;;30.83;13.98;;;;;;;15.56;29.42;98956.59;4974929;28;20050;-79
2022/01/14 08:30:57;;;;;;;27.65;14.27;;;;;;;14.98;29.88;98947.06;4974518;28;20039;-79
2022/01/14 08:33:23;;;;;;;26.33;14.50;;;;;;;16.25;28.52;98963.44;4974149;28;20042;-79
2022/01/14 08:35:49;;;;;;;26.83;13.48;;;;;;;17.17;27.19;98975.41;4974555;28;20046;-79
2022/01/14 08:38:15;;;;;;;28.90;13.20;;;;;;;16.82;27.18;98966.34;4974059;28;20427;-79
2022/01/14 08:40:42;;;;;;;28.00;13.23;;;;;;;18.06;25.72;98965.94;4973840;28;20043;-79
2022/01/14 08:43:08;;;;;;;26.48;12.88;;;;;;;18.32;25.31;98949.28;4978901;28;20031;-79
2022/01/14 08:45:35;;;;;;;26.55;11.95;;;;;;;18.57;25.00;98926.25;4974637;28;20426;-79
2022/01/14 08:48:02;;;;;;;21.67;11.48;;;;;;;19.09;23.98;98913.41;4973958;28;20047;-79
2022/01/14 08:50:34;;;;;;;20.90;11.20;;;;;;;18.94;23.99;98906.03;4974116;28;20035;-79
2022/01/14 08:53:01;;;;;;;21.75;10.13;;;;;;;19.98;22.95;98894.38;4974152;28;20042;-79
2022/01/14 08:55:27;;;;;;;26.33;11.75;;;;;;;20.40;22.28;98899.44;4975262;28;20027;-79
2022/01/14 08:57:55;;;;;;;20.80;10.13;;;;;;;19.92;23.03;98903.47;4982220;28;20466;-79
2022/01/14 09:00:24;;;;;;;19.02;10.55;;;;;;;18.90;23.65;98902.44;4990604;28;20042;-79
2022/01/14 09:02:51;;;;;;;19.73;11.02;;;;;;;18.69;24.18;98900.19;4975236;28;20035;-79
2022/01/14 09:05:18;;;;;;;22.42;12.57;;;;;;;17.75;25.64;98915.03;4978922;28;20035;-79
2022/01/14 09:07:45;;;;;;;20.88;10.90;;;;;;;17.94;25.77;98903.84;4972612;28;20534;-79
2022/01/14 09:10:11;;;;;;;21.55;11.07;;;;;;;17.22;26.34;98905.72;4977601;28;20034;-79
2022/01/14 09:12:37;;;;;;;20.20;10.20;;;;;;;18.14;25.46;98920.41;4991566;28;20113;-79
2022/01/14 09:15:05;;;;;;;20.67;10.15;;;;;;;18.27;25.18;98905.13;4973958;28;20030;-79
2022/01/14 09:17:31;;;;;;;17.80;9.50;;;;;;;18.91;24.42;98917.94;4974255;28;20047;-79
2022/01/14 09:19:57;;;;;;;19.92;10.48;;;;;;;18.82;24.30;98906.28;4973973;28;20035;-79
2022/01/14 09:22:25;;;;;;;15.85;8.82;;;;;;;17.93;25.68;98915.31;4980229;28;20383;-79
2022/01/14 09:24:52;;;;;;;18.25;8.93;;;;;;;18.92;24.63;98916.75;4972976;28;20038;-79
2022/01/14 09:27:20;;;;;;;21.00;8.90;;;;;;;18.02;25.83;98907.53;4974358;28;20386;-79
2022/01/14 09:29:46;;;;;;;16.40;8.25;;;;;;;18.74;24.88;98897.03;4974347;28;20038;-79
2022/01/14 09:32:12;;;;;;;18.80;10.98;;;;;;;18.02;25.58;98882.50;4973827;28;20081;-79
2022/01/14 09:34:38;;;;;;;17.23;8.52;;;;;;;17.71;26.13;98880.06;4972669;28;20082;-79
2022/01/14 09:37:04;;;;;;;20.90;10.18;;;;;;;17.00;27.00;98886.28;4975383;28;20117;-79
2022/01/14 09:39:32;;;;;;;22.13;9.55;;;;;;;17.42;26.44;98880.69;4973883;28;20118;-79
2022/01/14 09:42:00;;;;;;;20.83;9.77;;;;;;;17.07;27.14;98883.63;4973772;28;20482;-79
2022/01/14 09:44:26;;;;;;;22.08;10.63;;;;;;;18.36;25.10;98856.44;4974083;28;20031;-79
2022/01/14 09:46:53;;;;;;;16.27;8.95;;;;;;;17.52;26.35;98869.03;4974391;28;20038;-79
2022/01/14 09:49:20;;;;;;;19.95;9.43;;;;;;;18.04;26.15;98851.59;4973847;28;20038;-79
2022/01/14 09:51:46;;;;;;;17.23;9.68;;;;;;;18.84;24.88;98840.75;4972938;28;20039;-79
2022/01/14 09:54:12;;;;;;;19.98;9.95;;;;;;;19.98;23.25;98851.75;4978044;28;20035;-79
2022/01/14 09:56:41;;;;;;;20.08;9.65;;;;;;;17.92;25.54;98844.28;4979431;28;20035;-79
2022/01/14 09:59:07;;;;;;;21.98;10.25;;;;;;;16.67;27.34;98839.66;4977729;28;20038;-79
2022/01/14 10:01:42;;;;;;;18.48;9.45;;;;;;;16.25;28.43;98830.44;4977263;28;20134;-79
2022/01/14 10:04:14;;;;;;;20.35;10.93;;;;;;;16.25;28.38;98817.41;4977067;28;20085;-79
2022/01/14 10:06:46;;;;;;;22.20;11.18;;;;;;;17.23;27.01;98809.41;4977981;28;20117;-78
2022/01/14 10:09:16;;;;;;;16.90;9.23;;;;;;;17.87;26.22;98811.25;4977272;28;20093;-79
2022/01/14 10:11:57;;;;;;;23.05;11.40;;;;;;;16.15;28.32;98797.78;4977438;28;20070;-79
2022/01/14 10:14:24;;;;;;;18.48;10.15;;;;;;;15.55;29.53;98804.72;4976192;28;20082;-79
2022/01/14 10:17:00;;;;;;;23.05;10.60;;;;;;;15.82;28.98;98801.03;4976452;28;20030;-79
2022/01/14 10:19:40;;;;;;;22.05;11.73;;;;;;;16.10;28.94;98801.66;4976716;28;20038;-79
2022/01/14 10:22:22;;;;;;;20.95;11.07;;;;;;;16.90;27.31;98773.94;4975610;28;20039;-79
2022/01/14 10:25:04;;;;;;;18.55;10.55;;;;;;;17.20;26.66;98780.41;4975971;28;20710;-79
2022/01/14 10:27:36;;;;;;;16.73;10.63;;;;;;;17.57;26.35;98780.66;4975793;28;20030;-79
2022/01/14 10:30:23;;;;;;;22.42;11.90;;;;;;;16.61;27.47;98754.41;4976360;28;20027;-79
2022/01/14 10:32:56;;;;;;;24.60;11.02;;;;;;;15.70;29.18;98760.44;4976069;28;20475;-79
2022/01/14 10:35:24;;;;;;;19.13;9.45;;;;;;;16.18;28.69;98784.00;4972324;28;20039;-79
2022/01/14 10:37:50;;;;;;;20.65;10.35;;;;;;;16.20;28.33;98781.66;4991414;28;20066;-79
2022/01/14 10:40:24;;;;;;;21.77;12.10;;;;;;;16.94;27.47;98782.34;4975837;28;20035;-79
2022/01/14 10:42:52;;;;;;;20.90;10.63;;;;;;;17.31;26.67;98785.34;4976314;28;20466;-79
2022/01/14 10:45:22;;;;;;;16.55;9.35;;;;;;;17.66;26.53;98781.19;4973924;28;20069;-79
2022/01/14 10:48:04;;;;;;;15.93;8.82;;;;;;;18.06;26.25;98782.56;4974546;28;20043;-79
2022/01/14 10:50:45;;;;;;;14.57;8.13;;;;;;;17.67;26.10;98781.97;4976280;28;20050;-79
2022/01/14 10:53:21;;;;;;;17.33;8.52;;;;;;;16.88;27.61;98773.53;4976663;28;20023;-79
2022/01/14 10:55:49;;;;;;;16.95;9.25;;;;;;;17.69;26.73;98774.09;4983812;28;20065;-79
2022/01/14 10:58:22;;;;;;;16.25;8.80;;;;;;;16.95;27.55;98768.09;4995943;28;20041;-79
2022/01/14 11:00:51;;;;;;;14.75;7.93;;;;;;;16.83;28.02;98775.78;4982522;28;20094;-79
2022/01/14 11:03:37;;;;;;;17.35;8.57;;;;;;;16.04;29.22;98785.66;4985977;28;20034;-79
2022/01/14 11:06:16;;;;;;;16.00;9.13;;;;;;;17.62;27.01;98747.00;4972313;28;20031;-79
2022/01/14 11:08:42;;;;;;;15.82;8.32;;;;;;;17.48;27.04;98737.66;4978250;28;20090;-79
2022/01/14 11:11:09;;;;;;;15.57;8.13;;;;;;;18.55;25.93;98731.16;4994451;28;20097;-79
2022/01/14 11:13:35;;;;;;;18.80;8.77;;;;;;;17.17;27.80;98730.44;4975541;28;20126;-79
2022/01/14 11:16:02;;;;;;;15.70;7.78;;;;;;;17.15;27.92;98741.09;4975904;28;20031;-79
2022/01/14 11:18:29;;;;;;;12.63;7.43;;;;;;;16.61;28.65;98707.28;4972781;28;20055;-79
2022/01/14 11:23:39;;;;;;;12.25;7.03;;;;;;;17.71;27.30;98702.31;4963924;28;20395;-79
2022/01/14 11:26:12;;;;;;;13.48;7.55;;;;;;;16.98;28.41;98686.94;4958873;28;20047;-79
2022/01/14 11:28:42;;;;;;;13.93;6.60;;;;;;;17.33;28.20;98721.94;4967643;28;20397;-79
2022/01/14 11:31:33;;;;;;;15.68;9.18;;;;;;;17.81;27.68;98705.22;4965017;28;20035;-79
2022/01/14 11:34:03;;;;;;;15.02;7.78;;;;;;;17.73;27.59;98714.66;4956899;28;20387;-79
2022/01/14 11:36:52;;;;;;;12.05;7.32;;;;;;;16.80;29.46;98715.53;4956286;29;20107;-79
2022/01/14 11:39:27;;;;;;;12.73;6.75;;;;;;;17.24;28.58;98722.22;4962149;28;20071;-79
2022/01/14 11:42:09;;;;;;;10.50;6.57;;;;;;;17.47;28.17;98731.31;4956437;28;20031;-79
2022/01/14 11:44:56;;;;;;;12.20;6.63;;;;;;;18.96;26.01;98709.69;4956519;28;20035;-79
2022/01/14 11:47:26;;;;;;;14.43;6.72;;;;;;;18.83;26.14;98725.09;4963173;28;20051;-79
2022/01/14 11:49:54;;;;;;;10.65;6.15;;;;;;;18.09;27.20;98718.66;4959008;28;20067;-79
2022/01/14 11:52:42;;;;;;;21.55;6.57;;;;;;;17.45;28.50;98707.88;4964403;28;20395;-79
2022/01/14 11:55:34;;;;;;;11.43;6.68;;;;;;;18.49;27.06;98695.72;4958684;28;20035;-79